Time;durP1;ratioP1;P1;durP2;ratioP2;P2;SDS_P1;SDS_P2;PMS_P1;PMS_P2;Temp;Humidity;BMP_temperature;BMP_pressure;BME280_temperature;BME280_humidity;BME280_pressure;Samples;Min_cycle;Max_cycle;Signal;HPM_P1;HPM_P2
2021/06/18 00:06:26;;;;;;;4.90;4.20;;;;;;;;;;20831642;28;20590;-59
2021/06/18 00:16:26;;;;;;;4.80;4.17;;;;;;;;;;20830612;28;20634;-64
2021/06/18 00:26:26;;;;;;;6.00;4.43;;;;;;;;;;20830006;28;20262;-58
2021/06/18 00:36:27;;;;;;;4.63;4.10;;;;;;;;;;20829092;28;20232;-58
2021/06/18 00:46:28;;;;;;;5.37;4.20;;;;;;;;;;20828465;28;20237;-57
2021/06/18 00:56:29;;;;;;;5.40;4.87;;;;;;;;;;20827334;28;20238;-58
2021/06/18 01:06:31;;;;;;;6.83;4.97;;;;;;;;;;20825832;28;20302;-59
2021/06/18 01:16:37;;;;;;;4.50;4.10;;;;;;;;;;20825947;28;20238;-58
2021/06/18 01:26:43;;;;;;;4.63;4.13;;;;;;;;;;20823977;28;20287;-65
2021/06/18 01:36:46;;;;;;;5.07;4.43;;;;;;;;;;20824391;28;20517;-58
2021/06/18 01:46:47;;;;;;;4.60;4.20;;;;;;;;;;20823944;28;20212;-58
2021/06/18 01:56:47;;;;;;;7.07;4.50;;;;;;;;;;20823020;28;20231;-58
2021/06/18 02:06:49;;;;;;;4.40;3.87;;;;;;;;;;20822673;28;20644;-67
2021/06/18 02:16:51;;;;;;;5.57;4.07;;;;;;;;;;20821642;28;20720;-62
2021/06/18 02:26:52;;;;;;;3.80;3.50;;;;;;;;;;20821673;28;20223;-59
2021/06/18 02:36:53;;;;;;;4.33;4.00;;;;;;;;;;20821243;28;20315;-59
2021/06/18 02:46:53;;;;;;;4.70;4.17;;;;;;;;;;20820906;28;20372;-65
2021/06/18 02:56:58;;;;;;;7.20;4.60;;;;;;;;;;20820516;28;20232;-58
2021/06/18 03:07:00;;;;;;;5.17;4.37;;;;;;;;;;20820254;28;20588;-59
2021/06/18 03:17:03;;;;;;;5.27;3.77;;;;;;;;;;20819134;28;20232;-67
2021/06/18 03:27:04;;;;;;;4.60;4.20;;;;;;;;;;20824692;28;20220;-61
2021/06/18 03:37:04;;;;;;;5.07;3.42;;;;;;;;;;20889038;28;20603;-60
2021/06/18 03:47:06;;;;;;;3.55;3.20;;;;;;;;;;20914619;28;20692;-67
2021/06/18 03:57:07;;;;;;;4.47;4.10;;;;;;;;;;20918621;28;20208;-59
2021/06/18 04:07:08;;;;;;;5.82;3.90;;;;;;;;;;20917939;28;20192;-59
2021/06/18 04:17:10;;;;;;;3.47;3.10;;;;;;;;;;20916951;28;20759;-62
2021/06/18 04:27:10;;;;;;;3.33;3.08;;;;;;;;;;20916494;28;20677;-58
2021/06/18 04:37:10;;;;;;;3.75;2.97;;;;;;;;;;20914212;28;20293;-59
2021/06/18 04:47:11;;;;;;;2.80;2.60;;;;;;;;;;20912781;28;20630;-59
2021/06/18 04:57:13;;;;;;;3.75;2.92;;;;;;;;;;20915228;28;20269;-59
2021/06/18 05:07:13;;;;;;;5.55;2.97;;;;;;;;;;20910742;28;20275;-57
2021/06/18 05:17:14;;;;;;;5.90;3.08;;;;;;;;;;20913124;28;20274;-57
2021/06/18 05:27:14;;;;;;;2.90;2.70;;;;;;;;;;20911488;28;20302;-58
2021/06/18 05:37:14;;;;;;;3.30;3.10;;;;;;;;;;20910518;28;20649;-58
2021/06/18 05:47:14;;;;;;;3.57;3.10;;;;;;;;;;20909223;28;20547;-58
2021/06/18 05:57:15;;;;;;;12.73;3.30;;;;;;;;;;20906047;28;20572;-59
2021/06/18 06:07:15;;;;;;;20.07;4.10;;;;;;;;;;20906639;28;20241;-58
2021/06/18 06:17:16;;;;;;;3.77;2.97;;;;;;;;;;20908173;28;20227;-59
2021/06/18 06:27:16;;;;;;;3.57;2.90;;;;;;;;;;20907588;28;20562;-58
2021/06/18 06:37:17;;;;;;;4.23;3.00;;;;;;;;;;20908623;28;20212;-59
2021/06/18 06:47:17;;;;;;;4.43;3.03;;;;;;;;;;20907235;28;20215;-60
2021/06/18 06:57:19;;;;;;;5.82;3.83;;;;;;;;;;20906704;28;20211;-59
2021/06/18 07:07:19;;;;;;;8.77;4.00;;;;;;;;;;20920678;28;20171;-58
2021/06/18 07:17:20;;;;;;;7.10;4.03;;;;;;;;;;20921512;28;20227;-58
2021/06/18 07:27:20;;;;;;;6.43;3.58;;;;;;;;;;20922386;28;20183;-58
2021/06/18 07:37:21;;;;;;;8.48;3.60;;;;;;;;;;20921355;28;20218;-60
2021/06/18 07:47:23;;;;;;;8.95;3.33;;;;;;;;;;20919401;28;20198;-58
2021/06/18 07:57:23;;;;;;;6.75;3.30;;;;;;;;;;20918481;28;20203;-68
2021/06/18 08:07:23;;;;;;;5.32;3.60;;;;;;;;;;20917802;28;20172;-66
2021/06/18 08:17:24;;;;;;;7.47;4.05;;;;;;;;;;20915181;28;20247;-62
2021/06/18 08:27:24;;;;;;;6.20;2.78;;;;;;;;;;20916235;28;20208;-58
2021/06/18 08:37:24;;;;;;;4.22;3.10;;;;;;;;;;20915404;28;20207;-58
2021/06/18 08:47:25;;;;;;;4.80;3.30;;;;;;;;;;20914884;28;20176;-67
2021/06/18 08:57:25;;;;;;;3.33;2.97;;;;;;;;;;20913623;28;20261;-59
2021/06/18 09:07:25;;;;;;;6.50;3.40;;;;;;;;;;20913204;28;20202;-59
2021/06/18 09:17:28;;;;;;;3.30;3.00;;;;;;;;;;20913012;28;20318;-59
2021/06/18 09:27:35;;;;;;;4.95;3.20;;;;;;;;;;20911897;28;20633;-58
2021/06/18 09:37:38;;;;;;;3.75;3.00;;;;;;;;;;20910758;28;20202;-57
2021/06/18 09:47:39;;;;;;;3.20;3.00;;;;;;;;;;20912590;28;20625;-58
2021/06/18 09:57:41;;;;;;;4.05;3.00;;;;;;;;;;20909235;28;20250;-60
2021/06/18 10:07:42;;;;;;;5.22;3.35;;;;;;;;;;20908580;28;20164;-58
2021/06/18 10:17:44;;;;;;;7.75;3.03;;;;;;;;;;20907832;28;20227;-63
2021/06/18 10:27:45;;;;;;;3.90;2.85;;;;;;;;;;20908894;28;20171;-58
2021/06/18 10:37:47;;;;;;;4.20;2.95;;;;;;;;;;20916246;28;20290;-58
2021/06/18 10:47:55;;;;;;;4.05;3.20;;;;;;;;;;20923679;28;20199;-60
2021/06/18 10:57:55;;;;;;;3.10;2.78;;;;;;;;;;20923053;28;20214;-59
2021/06/18 11:08:26;;;;;;;4.03;2.60;;;;;;;;;;20922351;28;20558;-58
2021/06/18 11:18:32;;;;;;;2.80;2.60;;;;;;;;;;20919627;28;20255;-57
2021/06/18 11:28:34;;;;;;;3.78;2.70;;;;;;;;;;20922015;28;20210;-58
2021/06/18 11:38:35;;;;;;;2.60;2.50;;;;;;;;;;20919755;28;20231;-60
2021/06/18 11:48:36;;;;;;;3.42;2.97;;;;;;;;;;20919600;28;20693;-59
2021/06/18 11:58:36;;;;;;;4.22;3.00;;;;;;;;;;20918547;28;20203;-58
2021/06/18 12:08:36;;;;;;;3.85;3.00;;;;;;;;;;20918878;28;20534;-58
2021/06/18 12:18:37;;;;;;;2.50;2.22;;;;;;;;;;20917588;28;20330;-58
2021/06/18 12:28:37;;;;;;;3.75;2.90;;;;;;;;;;20916374;28;20225;-65
2021/06/18 12:38:37;;;;;;;2.40;2.25;;;;;;;;;;20916658;28;20231;-65
2021/06/18 12:48:38;;;;;;;3.15;2.90;;;;;;;;;;20916231;28;20160;-58
2021/06/18 12:58:39;;;;;;;2.65;2.42;;;;;;;;;;20912829;28;20667;-57
2021/06/18 13:08:46;;;;;;;2.63;2.40;;;;;;;;;;20876261;28;20184;-57
2021/06/18 13:18:53;;;;;;;4.97;2.90;;;;;;;;;;20824163;28;20694;-59
2021/06/18 13:28:53;;;;;;;4.40;3.10;;;;;;;;;;20797795;28;20195;-57
2021/06/18 13:38:54;;;;;;;5.55;3.38;;;;;;;;;;20811137;28;20328;-57
2021/06/18 13:48:55;;;;;;;3.53;3.22;;;;;;;;;;20791599;28;20188;-57
2021/06/18 13:58:57;;;;;;;3.30;2.95;;;;;;;;;;20788873;28;20220;-56
2021/06/18 14:08:57;;;;;;;3.00;2.80;;;;;;;;;;20794576;28;20756;-58
2021/06/18 14:18:58;;;;;;;4.40;2.80;;;;;;;;;;20807178;28;20321;-57
2021/06/18 14:28:58;;;;;;;4.45;3.33;;;;;;;;;;20833278;28;21743;-57
2021/06/18 14:38:59;;;;;;;3.60;3.30;;;;;;;;;;20829805;28;21042;-58
2021/06/18 14:48:59;;;;;;;4.20;3.50;;;;;;;;;;20824353;28;20310;-68
2021/06/18 14:58:59;;;;;;;3.55;3.03;;;;;;;;;;20811669;28;20211;-65
2021/06/18 15:09:02;;;;;;;5.30;3.30;;;;;;;;;;20814583;28;20168;-58
2021/06/18 15:19:02;;;;;;;3.55;3.22;;;;;;;;;;20812704;28;20220;-57
2021/06/18 15:29:03;;;;;;;3.53;2.67;;;;;;;;;;20819318;28;20202;-59
2021/06/18 15:39:04;;;;;;;3.65;3.10;;;;;;;;;;20832953;28;20219;-68
2021/06/18 15:49:04;;;;;;;3.08;2.70;;;;;;;;;;20901690;28;20683;-64
2021/06/18 15:59:04;;;;;;;2.95;2.60;;;;;;;;;;20908135;28;20507;-63
2021/06/18 16:09:05;;;;;;;4.00;3.05;;;;;;;;;;20913512;28;20195;-58
2021/06/18 16:19:05;;;;;;;4.32;3.15;;;;;;;;;;20915956;28;20950;-63
2021/06/18 16:29:06;;;;;;;3.30;2.95;;;;;;;;;;20916639;28;20218;-58
2021/06/18 16:39:07;;;;;;;5.05;3.00;;;;;;;;;;20915844;28;20196;-58
2021/06/18 16:49:08;;;;;;;3.28;2.97;;;;;;;;;;20916520;28;20183;-65
2021/06/18 16:59:09;;;;;;;3.30;3.00;;;;;;;;;;20914366;28;20211;-59
2021/06/18 17:09:10;;;;;;;3.47;3.05;;;;;;;;;;20914921;28;20270;-58
2021/06/18 17:19:10;;;;;;;5.53;2.85;;;;;;;;;;20912557;28;20224;-59
2021/06/18 17:29:11;;;;;;;2.95;2.72;;;;;;;;;;20913146;28;20589;-59
2021/06/18 17:39:12;;;;;;;3.85;2.92;;;;;;;;;;20910478;28;20211;-59
2021/06/18 17:49:12;;;;;;;4.57;2.80;;;;;;;;;;20910043;28;20168;-58
2021/06/18 17:59:13;;;;;;;4.43;3.03;;;;;;;;;;20910969;28;20669;-58
2021/06/18 18:09:13;;;;;;;3.72;2.80;;;;;;;;;;20909244;28;20241;-58
2021/06/18 18:19:14;;;;;;;3.00;2.80;;;;;;;;;;20908515;28;20227;-61
2021/06/18 18:29:14;;;;;;;4.40;3.08;;;;;;;;;;20909679;28;20172;-56
2021/06/18 18:39:14;;;;;;;5.30;3.08;;;;;;;;;;20906444;28;20226;-57
2021/06/18 18:49:17;;;;;;;3.72;3.13;;;;;;;;;;20889750;28;20184;-58
2021/06/18 18:59:17;;;;;;;4.90;3.05;;;;;;;;;;20833747;28;20262;-57
2021/06/18 19:09:21;;;;;;;3.10;2.90;;;;;;;;;;20875919;28;20184;-57
2021/06/18 19:19:22;;;;;;;10.43;3.43;;;;;;;;;;20907639;28;20250;-57
2021/06/18 19:29:24;;;;;;;17.50;3.97;;;;;;;;;;20916161;28;20183;-58
2021/06/18 19:39:25;;;;;;;3.80;3.10;;;;;;;;;;20921276;28;20574;-58
2021/06/18 19:49:27;;;;;;;5.00;3.60;;;;;;;;;;20919116;28;20211;-57
2021/06/18 19:59:28;;;;;;;4.10;3.63;;;;;;;;;;20918885;28;20207;-57
2021/06/18 20:09:29;;;;;;;6.77;3.43;;;;;;;;;;20915803;28;20167;-58
2021/06/18 20:19:29;;;;;;;4.57;3.57;;;;;;;;;;20904342;28;20246;-57
2021/06/18 20:29:30;;;;;;;4.40;4.00;;;;;;;;;;20907504;28;20179;-61
2021/06/18 20:39:30;;;;;;;4.10;3.70;;;;;;;;;;20915134;28;20202;-58
2021/06/18 20:49:30;;;;;;;4.20;3.80;;;;;;;;;;20915261;28;20257;-66
2021/06/18 20:59:31;;;;;;;4.03;3.63;;;;;;;;;;20914384;28;20241;-65
2021/06/18 21:09:31;;;;;;;4.43;3.70;;;;;;;;;;20911597;28;20185;-58
2021/06/18 21:19:32;;;;;;;4.13;3.80;;;;;;;;;;20909651;28;20579;-58
2021/06/18 21:29:32;;;;;;;3.80;3.50;;;;;;;;;;20912294;28;20621;-59
2021/06/18 21:39:33;;;;;;;4.23;3.80;;;;;;;;;;20909245;28;20480;-65
2021/06/18 21:49:33;;;;;;;4.93;4.20;;;;;;;;;;20908982;28;20202;-58
2021/06/18 21:59:34;;;;;;;4.63;4.23;;;;;;;;;;20909143;28;20245;-63
2021/06/18 22:09:34;;;;;;;5.00;4.60;;;;;;;;;;20905541;28;20707;-61
2021/06/18 22:19:35;;;;;;;4.93;4.43;;;;;;;;;;20908282;28;20525;-58
2021/06/18 22:29:35;;;;;;;5.20;4.80;;;;;;;;;;20907964;28;20180;-58
2021/06/18 22:39:35;;;;;;;4.70;4.33;;;;;;;;;;20907688;28;20200;-58
2021/06/18 22:49:36;;;;;;;4.97;4.57;;;;;;;;;;20906977;28;20164;-63
2021/06/18 22:59:36;;;;;;;4.80;4.23;;;;;;;;;;20906907;28;20689;-60
2021/06/18 23:09:37;;;;;;;5.37;4.97;;;;;;;;;;20903702;28;20516;-58
2021/06/18 23:19:38;;;;;;;5.17;4.67;;;;;;;;;;20906088;28;20238;-58
2021/06/18 23:29:38;;;;;;;5.80;4.83;;;;;;;;;;20907289;28;20195;-58
2021/06/18 23:39:38;;;;;;;4.87;4.43;;;;;;;;;;20905502;28;20215;-58
2021/06/18 23:49:39;;;;;;;6.30;5.40;;;;;;;;;;20918990;28;20525;-58
2021/06/18 23:59:40;;;;;;;5.43;5.03;;;;;;;;;;20920701;28;20219;-57
